Atkins, Virginia
Current Conditions -  °F | °C
As of 4:35 PM on Thursday 23 Oct 2014 (Local Time) from KMKJ Reporting Station
Broken Clouds Broken Clouds  
Wind Chill: 52°   Ceiling: 2700
Heat Index: 52°   Visibility: 10mi
Dew Point: 40°   Wind: 12mph
Humidity: 64%   Direction: 270°W
Pressure: 30.12"   Gusts: NA
Location:  36.87°N, 81.4°W
Report Text: KMKJ 232035Z AUTO 27010KT 10SM BKN027 11/04 A3012 RMK AO2 T01100044
Loading
Personal Weather Stations






























Interactive Weather Map
Tropical Storm Tracking
New forecast layout! Learn more

10-Day Weather Forecast

Advertisements
Track Severe Weather on mobile